Tougaloo, MS (39174)

5:21 PM CDT on July 27, 2016 (GMT -0500)
Chris' Weather Station | | Change Station

Elev 348 ft 32.35 °N, 90.17 °W | Updated 11 seconds ago

Overcast
Overcast
79.3 °F
Feels Like 84 °F
N
6.8
Wind Variable Wind from SSW

Today
High -- | Low -- °F
--% Chance of Precip.
Yesterday
High -- | Low -- °F
Precip. -- in
Pressure 29.95 in
Visibility 10.0 miles
Clouds Scattered Clouds 1800 ft
Mostly Cloudy 2500 ft
Overcast 3000 ft
Heat Index 84 °F
Dew Point 76 °F
Humidity 90%
Rainfall in
Snow Depth Not available.
6:12 AM 8:01 PM
Last Quarter, 39% visible
METAR KJAN 272154Z 22009KT 10SM SCT018 BKN025 OVC030 27/23 A2996 RMK AO2 TSB18E49 SLP140 TS MOV NE T02720233
Pressure 29.95 in
Visibility 10.0 miles
Clouds Scattered Clouds 1800 ft
Mostly Cloudy 2500 ft
Overcast 3000 ft
Heat Index 84 °F
Dew Point 76 °F
Humidity 90%
Rainfall in
Snow Depth Not available.
6:12 AM 8:01 PM
Last Quarter, 39% visible
METAR KJAN 272154Z 22009KT 10SM SCT018 BKN025 OVC030 27/23 A2996 RMK AO2 TSB18E49 SLP140 TS MOV NE T02720233

10-Day Weather Forecast

Almanac

Astronomy

Jul. 27, 2016 Rise Set
Actual Time
Civil Twilight
Nautical Twilight
Astronomical Twilight
Moon
Length of Visible Light
Length of Day
Tomorrow will be .
, % of the Moon is Illuminated

Today's Extremes

State Highs State Lows

Community

WunderPhotos

Upload Photos

1,927,946 photos uploaded!

WunderBlog® & News

Nearby

Air Quality

  Air Quality AQ Index Pollutant
Not available.

Snow Depth

Station Depth Elevation

Earthquake Activity

City Distance Mag. Time & Date
Minimum magnitude displayed is 2.5.

Coastal Water Temperatures

Place Temperature

Stations

Nearby Weather Stations

Station Location Temp. Windchill Dew Point Humidity Wind Precip. Elev Updated Type
                   

Watches & Warnings

There are currently no watches in effect.